sensor_id;sensor_type;location;lat;lon;timestamp;temperature;humidity
19734;DHT22;10018;51.230;7.860;2023-09-08T00:02:22;16.10;99.90
19734;DHT22;10018;51.230;7.860;2023-09-08T00:04:51;16.10;99.90
19734;DHT22;10018;51.230;7.860;2023-09-08T00:07:16;16.00;99.90
19734;DHT22;10018;51.230;7.860;2023-09-08T00:09:42;16.00;99.90
19734;DHT22;10018;51.230;7.860;2023-09-08T00:12:08;16.00;99.90
19734;DHT22;10018;51.230;7.860;2023-09-08T00:14:33;16.00;99.90
19734;DHT22;10018;51.230;7.860;2023-09-08T00:16:59;16.00;99.90
19734;DHT22;10018;51.230;7.860;2023-09-08T00:19:25;15.90;99.90
19734;DHT22;10018;51.230;7.860;2023-09-08T00:21:50;15.90;99.90
19734;DHT22;10018;51.230;7.860;2023-09-08T00:24:16;15.90;99.90
19734;DHT22;10018;51.230;7.860;2023-09-08T00:26:43;15.80;99.90
19734;DHT22;10018;51.230;7.860;2023-09-08T00:29:11;15.80;99.90
19734;DHT22;10018;51.230;7.860;2023-09-08T00:31:36;15.80;99.90
19734;DHT22;10018;51.230;7.860;2023-09-08T00:34:02;15.80;99.90
19734;DHT22;10018;51.230;7.860;2023-09-08T00:36:27;15.80;99.90
19734;DHT22;10018;51.230;7.860;2023-09-08T00:38:53;15.70;99.90
19734;DHT22;10018;51.230;7.860;2023-09-08T00:41:18;15.70;99.90
19734;DHT22;10018;51.230;7.860;2023-09-08T00:43:44;15.70;99.90
19734;DHT22;10018;51.230;7.860;2023-09-08T00:46:10;15.70;99.90
19734;DHT22;10018;51.230;7.860;2023-09-08T00:48:37;15.70;99.90
19734;DHT22;10018;51.230;7.860;2023-09-08T00:51:03;15.60;99.90
19734;DHT22;10018;51.230;7.860;2023-09-08T00:53:30;15.70;99.90
19734;DHT22;10018;51.230;7.860;2023-09-08T00:55:59;15.60;99.90
19734;DHT22;10018;51.230;7.860;2023-09-08T00:58:25;15.60;99.90
19734;DHT22;10018;51.230;7.860;2023-09-08T01:00:51;15.60;99.90
19734;DHT22;10018;51.230;7.860;2023-09-08T01:03:16;15.70;99.90
19734;DHT22;10018;51.230;7.860;2023-09-08T01:05:42;15.60;99.90
19734;DHT22;10018;51.230;7.860;2023-09-08T01:08:09;15.60;99.90
19734;DHT22;10018;51.230;7.860;2023-09-08T01:10:35;15.50;99.90
19734;DHT22;10018;51.230;7.860;2023-09-08T01:13:04;15.50;99.90
19734;DHT22;10018;51.230;7.860;2023-09-08T01:15:30;15.50;99.90
19734;DHT22;10018;51.230;7.860;2023-09-08T01:17:55;15.40;99.90
19734;DHT22;10018;51.230;7.860;2023-09-08T01:20:27;15.40;99.90
19734;DHT22;10018;51.230;7.860;2023-09-08T01:25:55;15.30;99.90
19734;DHT22;10018;51.230;7.860;2023-09-08T01:28:22;15.30;99.90
19734;DHT22;10018;51.230;7.860;2023-09-08T01:30:49;15.30;99.90
19734;DHT22;10018;51.230;7.860;2023-09-08T01:33:16;15.30;99.90
19734;DHT22;10018;51.230;7.860;2023-09-08T01:35:42;15.20;99.90
19734;DHT22;10018;51.230;7.860;2023-09-08T01:38:08;15.20;99.90
19734;DHT22;10018;51.230;7.860;2023-09-08T01:40:33;15.10;99.90
19734;DHT22;10018;51.230;7.860;2023-09-08T01:43:00;15.10;99.90
19734;DHT22;10018;51.230;7.860;2023-09-08T01:45:28;15.10;99.90
19734;DHT22;10018;51.230;7.860;2023-09-08T01:47:53;15.00;99.90
19734;DHT22;10018;51.230;7.860;2023-09-08T01:50:19;14.90;99.90
19734;DHT22;10018;51.230;7.860;2023-09-08T01:52:49;14.90;99.90
19734;DHT22;10018;51.230;7.860;2023-09-08T01:55:15;14.80;99.90
19734;DHT22;10018;51.230;7.860;2023-09-08T01:57:43;14.80;99.90
19734;DHT22;10018;51.230;7.860;2023-09-08T02:00:10;14.80;99.90
19734;DHT22;10018;51.230;7.860;2023-09-08T02:02:36;14.70;99.90
19734;DHT22;10018;51.230;7.860;2023-09-08T02:05:02;14.70;99.90
19734;DHT22;10018;51.230;7.860;2023-09-08T02:07:27;14.70;99.90
19734;DHT22;10018;51.230;7.860;2023-09-08T02:09:53;14.80;99.90
19734;DHT22;10018;51.230;7.860;2023-09-08T02:12:18;14.80;99.90
19734;DHT22;10018;51.230;7.860;2023-09-08T02:14:44;14.90;99.90
19734;DHT22;10018;51.230;7.860;2023-09-08T02:17:10;14.90;99.90
19734;DHT22;10018;51.230;7.860;2023-09-08T02:19:35;14.90;99.90
19734;DHT22;10018;51.230;7.860;2023-09-08T02:22:01;14.90;99.90
19734;DHT22;10018;51.230;7.860;2023-09-08T02:24:26;14.80;99.90
19734;DHT22;10018;51.230;7.860;2023-09-08T02:26:53;14.80;99.90
19734;DHT22;10018;51.230;7.860;2023-09-08T02:29:18;14.80;99.90
19734;DHT22;10018;51.230;7.860;2023-09-08T02:31:44;14.80;99.90
19734;DHT22;10018;51.230;7.860;2023-09-08T02:34:09;14.80;99.90
19734;DHT22;10018;51.230;7.860;2023-09-08T02:36:36;14.80;99.90
19734;DHT22;10018;51.230;7.860;2023-09-08T02:39:02;14.80;99.90
19734;DHT22;10018;51.230;7.860;2023-09-08T02:41:28;14.90;99.90
19734;DHT22;10018;51.230;7.860;2023-09-08T02:43:53;14.80;99.90
19734;DHT22;10018;51.230;7.860;2023-09-08T02:46:19;14.80;99.90
19734;DHT22;10018;51.230;7.860;2023-09-08T02:48:44;14.90;99.90
19734;DHT22;10018;51.230;7.860;2023-09-08T02:51:10;14.80;99.90
19734;DHT22;10018;51.230;7.860;2023-09-08T02:53:36;14.80;99.90
19734;DHT22;10018;51.230;7.860;2023-09-08T02:56:04;14.70;99.90
19734;DHT22;10018;51.230;7.860;2023-09-08T02:58:31;14.70;99.90
19734;DHT22;10018;51.230;7.860;2023-09-08T03:01:13;14.70;99.90
19734;DHT22;10018;51.230;7.860;2023-09-08T03:03:42;14.50;99.90
19734;DHT22;10018;51.230;7.860;2023-09-08T03:06:09;14.50;99.90
19734;DHT22;10018;51.230;7.860;2023-09-08T03:08:35;14.40;99.90
19734;DHT22;10018;51.230;7.860;2023-09-08T03:11:02;14.30;99.90
19734;DHT22;10018;51.230;7.860;2023-09-08T03:13:28;14.30;99.90
19734;DHT22;10018;51.230;7.860;2023-09-08T03:15:55;14.20;99.90
19734;DHT22;10018;51.230;7.860;2023-09-08T03:18:21;14.20;99.90
19734;DHT22;10018;51.230;7.860;2023-09-08T03:20:50;14.10;99.90
19734;DHT22;10018;51.230;7.860;2023-09-08T03:23:16;14.10;99.90
19734;DHT22;10018;51.230;7.860;2023-09-08T03:25:42;14.10;99.90
19734;DHT22;10018;51.230;7.860;2023-09-08T03:28:08;14.10;99.90
19734;DHT22;10018;51.230;7.860;2023-09-08T03:30:33;14.10;99.90
19734;DHT22;10018;51.230;7.860;2023-09-08T03:32:59;14.00;99.90
19734;DHT22;10018;51.230;7.860;2023-09-08T03:35:27;13.90;99.90
19734;DHT22;10018;51.230;7.860;2023-09-08T03:37:53;13.90;99.90
19734;DHT22;10018;51.230;7.860;2023-09-08T03:40:18;13.80;99.90
19734;DHT22;10018;51.230;7.860;2023-09-08T03:42:44;13.80;99.90
19734;DHT22;10018;51.230;7.860;2023-09-08T03:45:09;13.70;99.90
19734;DHT22;10018;51.230;7.860;2023-09-08T03:47:35;13.80;99.90
19734;DHT22;10018;51.230;7.860;2023-09-08T03:50:03;13.70;99.90
19734;DHT22;10018;51.230;7.860;2023-09-08T03:52:29;13.70;99.90
19734;DHT22;10018;51.230;7.860;2023-09-08T03:54:54;13.70;99.90
19734;DHT22;10018;51.230;7.860;2023-09-08T03:57:20;13.70;99.90
19734;DHT22;10018;51.230;7.860;2023-09-08T03:59:46;13.80;99.90
19734;DHT22;10018;51.230;7.860;2023-09-08T04:02:11;13.90;99.90
19734;DHT22;10018;51.230;7.860;2023-09-08T04:04:37;13.90;99.90
19734;DHT22;10018;51.230;7.860;2023-09-08T04:07:02;14.00;99.90
19734;DHT22;10018;51.230;7.860;2023-09-08T04:09:30;13.90;99.90
19734;DHT22;10018;51.230;7.860;2023-09-08T04:11:57;14.00;99.90
19734;DHT22;10018;51.230;7.860;2023-09-08T04:14:22;13.90;99.90
19734;DHT22;10018;51.230;7.860;2023-09-08T04:16:53;14.00;99.90
19734;DHT22;10018;51.230;7.860;2023-09-08T04:19:18;14.00;99.90
19734;DHT22;10018;51.230;7.860;2023-09-08T04:21:44;13.90;99.90
19734;DHT22;10018;51.230;7.860;2023-09-08T04:24:09;13.90;99.90
19734;DHT22;10018;51.230;7.860;2023-09-08T04:26:38;14.00;99.90
19734;DHT22;10018;51.230;7.860;2023-09-08T04:29:03;14.00;99.90
19734;DHT22;10018;51.230;7.860;2023-09-08T04:31:29;14.00;99.90
19734;DHT22;10018;51.230;7.860;2023-09-08T04:33:54;13.90;99.90
19734;DHT22;10018;51.230;7.860;2023-09-08T04:36:20;13.90;99.90
19734;DHT22;10018;51.230;7.860;2023-09-08T04:38:45;13.90;99.90
19734;DHT22;10018;51.230;7.860;2023-09-08T04:41:11;13.90;99.90
19734;DHT22;10018;51.230;7.860;2023-09-08T04:43:37;13.90;99.90
19734;DHT22;10018;51.230;7.860;2023-09-08T04:46:03;13.90;99.90
19734;DHT22;10018;51.230;7.860;2023-09-08T04:48:29;14.00;99.90
19734;DHT22;10018;51.230;7.860;2023-09-08T04:50:55;13.90;99.90
19734;DHT22;10018;51.230;7.860;2023-09-08T04:53:21;13.90;99.90
19734;DHT22;10018;51.230;7.860;2023-09-08T04:55:46;13.90;99.90
19734;DHT22;10018;51.230;7.860;2023-09-08T04:58:12;13.90;99.90
19734;DHT22;10018;51.230;7.860;2023-09-08T05:00:38;13.90;99.90
19734;DHT22;10018;51.230;7.860;2023-09-08T05:03:05;13.90;99.90
19734;DHT22;10018;51.230;7.860;2023-09-08T05:05:33;13.80;99.90
19734;DHT22;10018;51.230;7.860;2023-09-08T05:07:58;13.80;99.90
19734;DHT22;10018;51.230;7.860;2023-09-08T05:10:24;13.80;99.90
19734;DHT22;10018;51.230;7.860;2023-09-08T05:12:51;13.80;99.90
19734;DHT22;10018;51.230;7.860;2023-09-08T05:15:16;13.80;99.90
19734;DHT22;10018;51.230;7.860;2023-09-08T05:17:44;13.80;99.90
19734;DHT22;10018;51.230;7.860;2023-09-08T05:20:10;13.80;99.90
19734;DHT22;10018;51.230;7.860;2023-09-08T05:22:36;13.80;99.90
19734;DHT22;10018;51.230;7.860;2023-09-08T05:25:02;13.80;99.90
19734;DHT22;10018;51.230;7.860;2023-09-08T05:27:28;13.80;99.90
19734;DHT22;10018;51.230;7.860;2023-09-08T05:29:53;13.90;99.90
19734;DHT22;10018;51.230;7.860;2023-09-08T05:32:19;13.90;99.90
19734;DHT22;10018;51.230;7.860;2023-09-08T05:34:45;13.90;99.90
19734;DHT22;10018;51.230;7.860;2023-09-08T05:37:10;13.90;99.90
19734;DHT22;10018;51.230;7.860;2023-09-08T05:39:38;14.00;99.90
19734;DHT22;10018;51.230;7.860;2023-09-08T05:42:04;14.00;99.90
19734;DHT22;10018;51.230;7.860;2023-09-08T05:44:30;14.00;99.90
19734;DHT22;10018;51.230;7.860;2023-09-08T05:46:55;14.00;99.90
19734;DHT22;10018;51.230;7.860;2023-09-08T05:49:21;14.00;99.90
19734;DHT22;10018;51.230;7.860;2023-09-08T05:51:47;14.10;99.90
19734;DHT22;10018;51.230;7.860;2023-09-08T05:54:12;14.20;99.90
19734;DHT22;10018;51.230;7.860;2023-09-08T05:56:38;14.30;99.90
19734;DHT22;10018;51.230;7.860;2023-09-08T05:59:04;14.40;99.90
19734;DHT22;10018;51.230;7.860;2023-09-08T06:01:33;14.50;99.90
19734;DHT22;10018;51.230;7.860;2023-09-08T06:03:58;14.70;99.90
19734;DHT22;10018;51.230;7.860;2023-09-08T06:06:24;14.90;99.90
19734;DHT22;10018;51.230;7.860;2023-09-08T06:08:50;15.10;99.90
19734;DHT22;10018;51.230;7.860;2023-09-08T06:11:16;15.30;99.90
19734;DHT22;10018;51.230;7.860;2023-09-08T06:13:41;15.40;99.90
19734;DHT22;10018;51.230;7.860;2023-09-08T06:16:08;15.60;99.90
19734;DHT22;10018;51.230;7.860;2023-09-08T06:18:33;15.80;99.90
19734;DHT22;10018;51.230;7.860;2023-09-08T06:21:08;16.00;99.90
19734;DHT22;10018;51.230;7.860;2023-09-08T06:23:36;16.10;99.90
19734;DHT22;10018;51.230;7.860;2023-09-08T06:26:02;16.20;99.90
19734;DHT22;10018;51.230;7.860;2023-09-08T06:28:28;16.30;99.90
19734;DHT22;10018;51.230;7.860;2023-09-08T06:30:54;16.40;99.90
19734;DHT22;10018;51.230;7.860;2023-09-08T06:33:20;16.50;99.90
19734;DHT22;10018;51.230;7.860;2023-09-08T06:35:46;16.70;99.90
19734;DHT22;10018;51.230;7.860;2023-09-08T06:38:12;16.70;99.90
19734;DHT22;10018;51.230;7.860;2023-09-08T06:40:37;16.80;99.90
19734;DHT22;10018;51.230;7.860;2023-09-08T06:43:03;16.90;99.90
19734;DHT22;10018;51.230;7.860;2023-09-08T06:45:31;16.90;99.90
19734;DHT22;10018;51.230;7.860;2023-09-08T06:47:57;17.10;99.90
19734;DHT22;10018;51.230;7.860;2023-09-08T06:50:23;17.10;99.90
19734;DHT22;10018;51.230;7.860;2023-09-08T06:52:50;17.20;99.90
19734;DHT22;10018;51.230;7.860;2023-09-08T06:55:16;17.30;99.90
19734;DHT22;10018;51.230;7.860;2023-09-08T06:57:45;17.40;99.90
19734;DHT22;10018;51.230;7.860;2023-09-08T07:00:12;17.50;99.90
19734;DHT22;10018;51.230;7.860;2023-09-08T07:02:39;17.60;99.90
19734;DHT22;10018;51.230;7.860;2023-09-08T07:05:04;17.70;99.90
19734;DHT22;10018;51.230;7.860;2023-09-08T07:07:36;17.60;99.90
19734;DHT22;10018;51.230;7.860;2023-09-08T07:10:05;17.70;99.90
19734;DHT22;10018;51.230;7.860;2023-09-08T07:12:31;17.70;99.90
19734;DHT22;10018;51.230;7.860;2023-09-08T07:14:57;17.80;99.90
19734;DHT22;10018;51.230;7.860;2023-09-08T07:17:22;18.00;99.90
19734;DHT22;10018;51.230;7.860;2023-09-08T07:19:49;18.10;99.90
19734;DHT22;10018;51.230;7.860;2023-09-08T07:22:15;18.20;99.90
19734;DHT22;10018;51.230;7.860;2023-09-08T07:24:44;18.40;99.90
19734;DHT22;10018;51.230;7.860;2023-09-08T07:27:12;18.50;99.90
19734;DHT22;10018;51.230;7.860;2023-09-08T07:29:40;18.60;99.90
19734;DHT22;10018;51.230;7.860;2023-09-08T07:32:07;18.80;99.90
19734;DHT22;10018;51.230;7.860;2023-09-08T07:34:32;19.00;99.90
19734;DHT22;10018;51.230;7.860;2023-09-08T07:36:58;19.10;99.90
19734;DHT22;10018;51.230;7.860;2023-09-08T07:39:24;19.30;99.90
19734;DHT22;10018;51.230;7.860;2023-09-08T07:41:50;19.40;99.90
19734;DHT22;10018;51.230;7.860;2023-09-08T07:44:17;19.50;99.90
19734;DHT22;10018;51.230;7.860;2023-09-08T07:46:43;19.70;99.90
19734;DHT22;10018;51.230;7.860;2023-09-08T07:49:13;19.80;99.90
19734;DHT22;10018;51.230;7.860;2023-09-08T07:51:40;20.00;99.90
19734;DHT22;10018;51.230;7.860;2023-09-08T07:54:06;20.10;99.90
19734;DHT22;10018;51.230;7.860;2023-09-08T07:56:32;20.30;99.90
19734;DHT22;10018;51.230;7.860;2023-09-08T07:58:58;20.50;99.90
19734;DHT22;10018;51.230;7.860;2023-09-08T08:01:23;20.70;99.90
19734;DHT22;10018;51.230;7.860;2023-09-08T08:03:49;20.90;99.90
19734;DHT22;10018;51.230;7.860;2023-09-08T08:06:14;21.00;99.90
19734;DHT22;10018;51.230;7.860;2023-09-08T08:08:40;21.20;99.90
19734;DHT22;10018;51.230;7.860;2023-09-08T08:11:14;21.30;99.90
19734;DHT22;10018;51.230;7.860;2023-09-08T08:13:40;21.50;99.90
19734;DHT22;10018;51.230;7.860;2023-09-08T08:16:06;21.70;99.90
19734;DHT22;10018;51.230;7.860;2023-09-08T08:18:31;21.90;99.90
19734;DHT22;10018;51.230;7.860;2023-09-08T08:20:57;22.00;99.90
19734;DHT22;10018;51.230;7.860;2023-09-08T08:23:23;22.30;99.90
19734;DHT22;10018;51.230;7.860;2023-09-08T08:25:49;22.40;99.90
19734;DHT22;10018;51.230;7.860;2023-09-08T08:28:14;22.60;99.90
19734;DHT22;10018;51.230;7.860;2023-09-08T08:30:40;22.70;99.90
19734;DHT22;10018;51.230;7.860;2023-09-08T08:33:06;22.90;99.90
19734;DHT22;10018;51.230;7.860;2023-09-08T08:35:31;23.10;99.90
19734;DHT22;10018;51.230;7.860;2023-09-08T08:38:00;23.20;99.90
19734;DHT22;10018;51.230;7.860;2023-09-08T08:40:26;23.30;99.90
19734;DHT22;10018;51.230;7.860;2023-09-08T08:42:58;23.50;99.90
19734;DHT22;10018;51.230;7.860;2023-09-08T08:45:24;23.70;99.90
19734;DHT22;10018;51.230;7.860;2023-09-08T08:47:53;23.80;99.90
19734;DHT22;10018;51.230;7.860;2023-09-08T08:50:21;23.90;99.90
19734;DHT22;10018;51.230;7.860;2023-09-08T08:52:47;24.00;99.90
19734;DHT22;10018;51.230;7.860;2023-09-08T08:55:13;24.00;99.90
19734;DHT22;10018;51.230;7.860;2023-09-08T08:57:41;24.20;99.90
19734;DHT22;10018;51.230;7.860;2023-09-08T09:00:09;24.30;99.90
19734;DHT22;10018;51.230;7.860;2023-09-08T09:02:41;24.40;99.90
19734;DHT22;10018;51.230;7.860;2023-09-08T09:05:12;24.50;99.90
19734;DHT22;10018;51.230;7.860;2023-09-08T09:07:41;24.60;99.90
19734;DHT22;10018;51.230;7.860;2023-09-08T09:10:07;24.70;99.90
19734;DHT22;10018;51.230;7.860;2023-09-08T09:12:35;24.80;99.90
19734;DHT22;10018;51.230;7.860;2023-09-08T09:15:02;24.80;99.90
19734;DHT22;10018;51.230;7.860;2023-09-08T09:17:30;24.90;99.90
19734;DHT22;10018;51.230;7.860;2023-09-08T09:20:15;25.10;99.90
19734;DHT22;10018;51.230;7.860;2023-09-08T09:22:46;25.20;99.90
19734;DHT22;10018;51.230;7.860;2023-09-08T09:25:30;25.20;99.90
19734;DHT22;10018;51.230;7.860;2023-09-08T09:28:00;25.40;99.90
19734;DHT22;10018;51.230;7.860;2023-09-08T09:30:48;25.50;99.90
19734;DHT22;10018;51.230;7.860;2023-09-08T09:33:14;25.60;99.90
19734;DHT22;10018;51.230;7.860;2023-09-08T09:35:48;25.70;99.90
19734;DHT22;10018;51.230;7.860;2023-09-08T09:38:15;25.80;99.90
19734;DHT22;10018;51.230;7.860;2023-09-08T09:40:42;25.90;99.90
19734;DHT22;10018;51.230;7.860;2023-09-08T09:43:08;26.00;99.90
19734;DHT22;10018;51.230;7.860;2023-09-08T09:45:36;26.20;99.90
19734;DHT22;10018;51.230;7.860;2023-09-08T09:48:03;26.30;99.90
19734;DHT22;10018;51.230;7.860;2023-09-08T09:50:33;26.30;99.90
19734;DHT22;10018;51.230;7.860;2023-09-08T09:53:12;26.30;99.90
19734;DHT22;10018;51.230;7.860;2023-09-08T09:55:39;26.40;99.90
19734;DHT22;10018;51.230;7.860;2023-09-08T09:58:05;26.50;99.90
19734;DHT22;10018;51.230;7.860;2023-09-08T10:00:32;26.50;99.90
19734;DHT22;10018;51.230;7.860;2023-09-08T10:02:58;26.60;99.90
19734;DHT22;10018;51.230;7.860;2023-09-08T10:05:27;26.70;99.90
19734;DHT22;10018;51.230;7.860;2023-09-08T10:07:53;26.80;99.90
19734;DHT22;10018;51.230;7.860;2023-09-08T10:10:20;26.90;99.90
19734;DHT22;10018;51.230;7.860;2023-09-08T10:12:52;26.90;99.90
19734;DHT22;10018;51.230;7.860;2023-09-08T10:15:21;27.00;99.90
19734;DHT22;10018;51.230;7.860;2023-09-08T10:17:53;27.10;99.90
19734;DHT22;10018;51.230;7.860;2023-09-08T10:20:25;27.10;99.90
19734;DHT22;10018;51.230;7.860;2023-09-08T10:23:18;27.10;99.90
19734;DHT22;10018;51.230;7.860;2023-09-08T10:25:50;27.20;99.90
19734;DHT22;10018;51.230;7.860;2023-09-08T10:28:21;27.20;99.90
19734;DHT22;10018;51.230;7.860;2023-09-08T10:30:48;27.30;99.90
19734;DHT22;10018;51.230;7.860;2023-09-08T10:33:15;27.30;99.90
19734;DHT22;10018;51.230;7.860;2023-09-08T10:35:41;27.40;99.90
19734;DHT22;10018;51.230;7.860;2023-09-08T10:38:27;27.40;99.90
19734;DHT22;10018;51.230;7.860;2023-09-08T10:43:39;27.60;99.90
19734;DHT22;10018;51.230;7.860;2023-09-08T10:46:21;27.70;99.90
19734;DHT22;10018;51.230;7.860;2023-09-08T10:48:49;27.80;99.90
19734;DHT22;10018;51.230;7.860;2023-09-08T10:51:18;27.90;99.90
19734;DHT22;10018;51.230;7.860;2023-09-08T10:53:47;28.00;99.90
19734;DHT22;10018;51.230;7.860;2023-09-08T10:56:13;28.10;99.90
19734;DHT22;10018;51.230;7.860;2023-09-08T10:58:42;28.10;99.90
19734;DHT22;10018;51.230;7.860;2023-09-08T11:01:16;28.10;99.90
19734;DHT22;10018;51.230;7.860;2023-09-08T11:06:08;28.30;99.90
19734;DHT22;10018;51.230;7.860;2023-09-08T11:08:42;28.30;99.90
19734;DHT22;10018;51.230;7.860;2023-09-08T11:11:10;28.40;99.90
19734;DHT22;10018;51.230;7.860;2023-09-08T11:13:36;28.40;99.90
19734;DHT22;10018;51.230;7.860;2023-09-08T11:16:02;28.50;99.90
19734;DHT22;10018;51.230;7.860;2023-09-08T11:18:30;28.60;99.90
19734;DHT22;10018;51.230;7.860;2023-09-08T11:20:57;28.60;99.90
19734;DHT22;10018;51.230;7.860;2023-09-08T11:23:23;28.60;99.90
19734;DHT22;10018;51.230;7.860;2023-09-08T11:25:50;28.70;99.90
19734;DHT22;10018;51.230;7.860;2023-09-08T11:28:21;28.70;99.90
19734;DHT22;10018;51.230;7.860;2023-09-08T11:30:47;28.70;99.90
19734;DHT22;10018;51.230;7.860;2023-09-08T11:33:18;28.70;99.90
19734;DHT22;10018;51.230;7.860;2023-09-08T11:35:47;28.80;99.90
19734;DHT22;10018;51.230;7.860;2023-09-08T11:38:13;28.90;99.90
19734;DHT22;10018;51.230;7.860;2023-09-08T11:40:40;28.80;99.90
19734;DHT22;10018;51.230;7.860;2023-09-08T11:43:06;28.80;99.90
19734;DHT22;10018;51.230;7.860;2023-09-08T11:45:40;28.80;99.90
19734;DHT22;10018;51.230;7.860;2023-09-08T11:48:08;28.90;99.90
19734;DHT22;10018;51.230;7.860;2023-09-08T11:50:33;29.10;99.90
19734;DHT22;10018;51.230;7.860;2023-09-08T11:52:59;29.00;99.90
19734;DHT22;10018;51.230;7.860;2023-09-08T11:55:25;29.00;99.90
19734;DHT22;10018;51.230;7.860;2023-09-08T11:57:55;29.20;99.90
19734;DHT22;10018;51.230;7.860;2023-09-08T12:00:26;29.20;99.90
19734;DHT22;10018;51.230;7.860;2023-09-08T12:02:53;29.20;99.90
19734;DHT22;10018;51.230;7.860;2023-09-08T12:05:25;29.30;99.90
19734;DHT22;10018;51.230;7.860;2023-09-08T12:07:52;29.40;99.90
19734;DHT22;10018;51.230;7.860;2023-09-08T12:10:18;29.40;99.90
19734;DHT22;10018;51.230;7.860;2023-09-08T12:12:46;29.30;99.90
19734;DHT22;10018;51.230;7.860;2023-09-08T12:15:12;29.40;99.90
19734;DHT22;10018;51.230;7.860;2023-09-08T12:17:52;29.60;99.90
19734;DHT22;10018;51.230;7.860;2023-09-08T12:20:18;29.60;99.90
19734;DHT22;10018;51.230;7.860;2023-09-08T12:22:50;29.70;99.90
19734;DHT22;10018;51.230;7.860;2023-09-08T12:25:16;29.70;99.90
19734;DHT22;10018;51.230;7.860;2023-09-08T12:27:45;29.80;99.90
19734;DHT22;10018;51.230;7.860;2023-09-08T12:30:18;29.80;99.90
19734;DHT22;10018;51.230;7.860;2023-09-08T12:32:46;29.90;99.90
19734;DHT22;10018;51.230;7.860;2023-09-08T12:35:13;30.00;99.90
19734;DHT22;10018;51.230;7.860;2023-09-08T12:37:41;29.90;99.90
19734;DHT22;10018;51.230;7.860;2023-09-08T12:40:07;30.00;99.90
19734;DHT22;10018;51.230;7.860;2023-09-08T12:42:35;30.00;99.90
19734;DHT22;10018;51.230;7.860;2023-09-08T12:45:00;29.90;99.90
19734;DHT22;10018;51.230;7.860;2023-09-08T12:47:26;29.90;99.90
19734;DHT22;10018;51.230;7.860;2023-09-08T12:49:54;30.00;99.90
19734;DHT22;10018;51.230;7.860;2023-09-08T12:52:21;30.00;99.90
19734;DHT22;10018;51.230;7.860;2023-09-08T12:54:46;30.00;99.90
19734;DHT22;10018;51.230;7.860;2023-09-08T12:57:12;29.90;99.90
19734;DHT22;10018;51.230;7.860;2023-09-08T12:59:37;30.10;99.90
19734;DHT22;10018;51.230;7.860;2023-09-08T13:02:03;30.30;99.90
19734;DHT22;10018;51.230;7.860;2023-09-08T13:04:29;30.40;99.90
19734;DHT22;10018;51.230;7.860;2023-09-08T13:06:56;30.30;99.90
19734;DHT22;10018;51.230;7.860;2023-09-08T13:09:23;30.10;99.90
19734;DHT22;10018;51.230;7.860;2023-09-08T13:11:49;30.20;99.90
19734;DHT22;10018;51.230;7.860;2023-09-08T13:14:17;30.40;99.90
19734;DHT22;10018;51.230;7.860;2023-09-08T13:16:42;30.50;99.90
19734;DHT22;10018;51.230;7.860;2023-09-08T13:19:08;30.40;99.90
19734;DHT22;10018;51.230;7.860;2023-09-08T13:21:33;30.60;99.90
19734;DHT22;10018;51.230;7.860;2023-09-08T13:23:59;30.60;99.90
19734;DHT22;10018;51.230;7.860;2023-09-08T13:26:25;30.60;99.90
19734;DHT22;10018;51.230;7.860;2023-09-08T13:28:50;30.60;99.90
19734;DHT22;10018;51.230;7.860;2023-09-08T13:31:17;30.60;99.90
19734;DHT22;10018;51.230;7.860;2023-09-08T13:33:43;30.70;99.90
19734;DHT22;10018;51.230;7.860;2023-09-08T13:36:08;30.60;99.90
19734;DHT22;10018;51.230;7.860;2023-09-08T13:38:34;30.40;99.90
19734;DHT22;10018;51.230;7.860;2023-09-08T13:41:01;30.40;99.90
19734;DHT22;10018;51.230;7.860;2023-09-08T13:43:26;30.30;99.90
19734;DHT22;10018;51.230;7.860;2023-09-08T13:45:52;30.40;99.90
19734;DHT22;10018;51.230;7.860;2023-09-08T13:48:20;30.50;99.90
19734;DHT22;10018;51.230;7.860;2023-09-08T13:50:45;30.60;99.90
19734;DHT22;10018;51.230;7.860;2023-09-08T13:53:11;30.60;99.90
19734;DHT22;10018;51.230;7.860;2023-09-08T13:55:37;30.80;99.90
19734;DHT22;10018;51.230;7.860;2023-09-08T13:58:02;30.90;99.90
19734;DHT22;10018;51.230;7.860;2023-09-08T14:00:28;30.90;99.90
19734;DHT22;10018;51.230;7.860;2023-09-08T14:02:56;30.80;99.90
19734;DHT22;10018;51.230;7.860;2023-09-08T14:05:22;30.80;99.90
19734;DHT22;10018;51.230;7.860;2023-09-08T14:07:47;30.80;99.90
19734;DHT22;10018;51.230;7.860;2023-09-08T14:10:13;30.80;99.90
19734;DHT22;10018;51.230;7.860;2023-09-08T14:12:38;30.90;99.90
19734;DHT22;10018;51.230;7.860;2023-09-08T14:15:04;30.80;99.90
19734;DHT22;10018;51.230;7.860;2023-09-08T14:17:32;30.90;99.90
19734;DHT22;10018;51.230;7.860;2023-09-08T14:19:58;31.10;99.90
19734;DHT22;10018;51.230;7.860;2023-09-08T14:22:26;31.10;99.90
19734;DHT22;10018;51.230;7.860;2023-09-08T14:24:52;31.20;99.90
19734;DHT22;10018;51.230;7.860;2023-09-08T14:27:17;31.30;99.90
19734;DHT22;10018;51.230;7.860;2023-09-08T14:29:43;31.60;99.90
19734;DHT22;10018;51.230;7.860;2023-09-08T14:32:09;31.70;99.90
19734;DHT22;10018;51.230;7.860;2023-09-08T14:34:34;31.60;99.90
19734;DHT22;10018;51.230;7.860;2023-09-08T14:37:00;31.50;99.90
19734;DHT22;10018;51.230;7.860;2023-09-08T14:39:26;31.60;99.90
19734;DHT22;10018;51.230;7.860;2023-09-08T14:41:55;31.90;99.90
19734;DHT22;10018;51.230;7.860;2023-09-08T14:44:21;32.20;99.90
19734;DHT22;10018;51.230;7.860;2023-09-08T14:46:48;32.60;99.90
19734;DHT22;10018;51.230;7.860;2023-09-08T14:49:13;33.10;99.90
19734;DHT22;10018;51.230;7.860;2023-09-08T14:51:42;32.60;99.90
19734;DHT22;10018;51.230;7.860;2023-09-08T14:54:07;33.10;99.90
19734;DHT22;10018;51.230;7.860;2023-09-08T14:56:33;33.40;99.90
19734;DHT22;10018;51.230;7.860;2023-09-08T14:58:59;33.60;99.90
19734;DHT22;10018;51.230;7.860;2023-09-08T15:01:25;33.60;99.90
19734;DHT22;10018;51.230;7.860;2023-09-08T15:03:51;33.90;99.90
19734;DHT22;10018;51.230;7.860;2023-09-08T15:06:16;33.90;99.90
19734;DHT22;10018;51.230;7.860;2023-09-08T15:08:42;33.90;99.90
19734;DHT22;10018;51.230;7.860;2023-09-08T15:11:09;34.70;99.90
19734;DHT22;10018;51.230;7.860;2023-09-08T15:13:36;35.20;99.90
19734;DHT22;10018;51.230;7.860;2023-09-08T15:16:01;35.80;99.90
19734;DHT22;10018;51.230;7.860;2023-09-08T15:18:27;35.90;99.90
19734;DHT22;10018;51.230;7.860;2023-09-08T15:20:53;35.80;99.90
19734;DHT22;10018;51.230;7.860;2023-09-08T15:23:19;35.60;99.90
19734;DHT22;10018;51.230;7.860;2023-09-08T15:26:11;35.80;99.90
19734;DHT22;10018;51.230;7.860;2023-09-08T15:28:36;36.30;99.90
19734;DHT22;10018;51.230;7.860;2023-09-08T15:31:04;36.10;99.90
19734;DHT22;10018;51.230;7.860;2023-09-08T15:33:29;36.40;99.90
19734;DHT22;10018;51.230;7.860;2023-09-08T15:35:55;36.60;99.90
19734;DHT22;10018;51.230;7.860;2023-09-08T15:38:20;37.00;99.90